createdAt,value
2023-04-16T00:01:35.367Z,26
2023-04-16T00:07:29.937Z,25.9
2023-04-16T00:13:20.649Z,25.7
2023-04-16T00:18:57.942Z,25.5
2023-04-16T00:24:49.063Z,25.3
2023-04-16T00:30:40.159Z,25.5
2023-04-16T00:36:16.660Z,29.4
2023-04-16T00:41:52.949Z,27.3
2023-04-16T00:47:44.843Z,26.1
2023-04-16T00:53:21.976Z,25.9
2023-04-16T00:58:58.049Z,25.8
2023-04-16T01:04:36.469Z,25.6
2023-04-16T01:09:57.918Z,25.4
2023-04-16T01:15:49.373Z,25.1
2023-04-16T01:21:25.935Z,25.7
2023-04-16T01:27:01.889Z,29.5
2023-04-16T01:32:23.086Z,27.2
2023-04-16T01:38:14.465Z,26.2
2023-04-16T01:43:50.266Z,25.9
2023-04-16T01:49:42.664Z,25.8
2023-04-16T01:55:33.681Z,25.6
2023-04-16T02:01:10.160Z,25.4
2023-04-16T02:07:03.259Z,25.1
2023-04-16T02:12:23.657Z,25.8
2023-04-16T02:18:15.895Z,29.4
2023-04-16T02:24:07.209Z,27.1
2023-04-16T02:29:57.905Z,26.1
2023-04-16T02:35:49.700Z,25.9
2023-04-16T02:41:41.173Z,25.8
2023-04-16T02:47:32.989Z,25.5
2023-04-16T02:53:24.824Z,25.3
2023-04-16T02:59:15.738Z,25.1
2023-04-16T03:04:52.577Z,27.1
2023-04-16T03:10:44.174Z,30.1
2023-04-16T03:16:20.427Z,26.6
2023-04-16T03:22:12.458Z,26
2023-04-16T03:28:04.212Z,25.8
2023-04-16T03:33:56.404Z,25.7
2023-04-16T03:39:47.556Z,25.4
2023-04-16T03:45:23.583Z,25.3
2023-04-16T03:51:00.056Z,25
2023-04-16T03:56:35.917Z,27.3
2023-04-16T04:02:27.978Z,30.1
2023-04-16T04:08:06.643Z,26.6
2023-04-16T04:13:58.323Z,26
2023-04-16T04:20:00.263Z,25.8
2023-04-16T04:25:52.328Z,25.6
2023-04-16T04:31:12.411Z,25.4
2023-04-16T04:37:04.572Z,25
2023-04-16T04:42:55.894Z,24.9
2023-04-16T04:48:49.476Z,28.2
2023-04-16T04:54:40.785Z,28.4
2023-04-16T05:00:22.187Z,26.3
2023-04-16T05:06:14.488Z,25.9
2023-04-16T05:12:06.029Z,25.6
2023-04-16T05:17:42.966Z,25.4
2023-04-16T05:23:19.546Z,25.1
2023-04-16T05:29:11.352Z,24.9
2023-04-16T05:35:04.341Z,24.8
2023-04-16T05:40:55.192Z,29.3
2023-04-16T05:46:50.177Z,27.1
2023-04-16T05:52:26.250Z,26.3
2023-04-16T05:58:17.304Z,25.9
2023-04-16T06:04:10.656Z,25.7
2023-04-16T06:09:47.509Z,25.4
2023-04-16T06:15:25.363Z,25.2
2023-04-16T06:21:01.752Z,24.9
2023-04-16T06:26:55.696Z,24.6
2023-04-16T06:32:58.303Z,28.3
2023-04-16T06:38:34.538Z,28.1
2023-04-16T06:44:26.791Z,26.4
2023-04-16T06:50:02.120Z,26.1
2023-04-16T06:55:39.284Z,25.9
2023-04-16T07:01:15.782Z,25.6
2023-04-16T07:07:08.996Z,25.4
2023-04-16T07:13:00.908Z,25.1
2023-04-16T07:18:53.538Z,24.8
2023-04-16T07:24:44.750Z,27.8
2023-04-16T07:30:35.856Z,28.9
2023-04-16T07:35:57.440Z,26.5
2023-04-16T07:41:50.031Z,26.1
2023-04-16T07:47:54.860Z,25.8
2023-04-16T07:53:45.959Z,25.6
2023-04-16T07:59:37.344Z,25.4
2023-04-16T08:05:16.412Z,25.1
2023-04-16T08:11:08.565Z,24.8
2023-04-16T08:16:59.971Z,28.1
2023-04-16T08:22:52.384Z,28.5
2023-04-16T08:28:56.749Z,26.4
2023-04-16T08:34:49.007Z,25.9
2023-04-16T08:40:40.923Z,25.7
2023-04-16T08:46:32.867Z,25.5
2023-04-16T08:52:09.006Z,25.3
2023-04-16T08:58:01.325Z,25
2023-04-16T09:03:55.263Z,27.4
2023-04-16T09:09:46.606Z,29
2023-04-16T09:15:38.153Z,26.4
2023-04-16T09:21:30.572Z,25.9
2023-04-16T09:27:06.906Z,25.7
2023-04-16T09:33:01.086Z,25.5
2023-04-16T09:38:53.399Z,25.3
2023-04-16T09:44:30.202Z,25
2023-04-16T09:50:12.575Z,27.9
2023-04-16T09:56:04.324Z,28.5
2023-04-16T10:01:57.361Z,26.2
2023-04-16T10:08:10.595Z,25.7
2023-04-16T10:14:02.339Z,25.5
2023-04-16T10:19:53.540Z,25.3
2023-04-16T10:25:45.697Z,24.9
2023-04-16T10:31:38.255Z,24.6
2023-04-16T10:37:26.990Z,24.3
2023-04-16T10:43:20.632Z,24.1
2023-04-16T10:49:23.179Z,23.9
2023-04-16T10:55:14.709Z,23.7
2023-04-16T11:00:52.582Z,23.5
2023-04-16T11:06:46.613Z,23.3
2023-04-16T11:12:46.159Z,23.2
2023-04-16T11:18:41.600Z,23
2023-04-16T11:24:48.923Z,22.9
2023-04-16T11:30:39.379Z,22.8
2023-04-16T11:36:31.042Z,22.6
2023-04-16T11:42:22.310Z,22.5
2023-04-16T11:48:27.506Z,22.3
2023-04-16T11:54:18.625Z,22.3
2023-04-16T12:00:19.109Z,22.1
2023-04-16T12:06:16.926Z,22.1
2023-04-16T12:12:08.896Z,21.9
2023-04-16T12:17:45.249Z,21.9
2023-04-16T12:23:20.825Z,21.8
2023-04-16T12:28:59.393Z,21.8
2023-04-16T12:35:05.332Z,21.7
2023-04-16T12:40:55.222Z,21.6
2023-04-16T12:46:46.909Z,21.6
2023-04-16T12:52:40.241Z,21.5
2023-04-16T12:58:31.739Z,21.4
2023-04-16T13:04:26.154Z,21.4
2023-04-16T13:10:18.870Z,21.4
2023-04-16T13:16:10.381Z,21.3
2023-04-16T13:22:03.221Z,21.3
2023-04-16T13:27:55.589Z,21.3
2023-04-16T13:33:50.238Z,21.2
2023-04-16T13:50:58.210Z,21.1
2023-04-16T13:56:35.655Z,21.1
2023-04-16T14:02:12.511Z,21
2023-04-16T14:07:33.694Z,21
2023-04-16T14:12:39.232Z,20.9
2023-04-16T14:18:00.779Z,20.9
2023-04-16T14:23:51.518Z,20.9
2023-04-16T14:29:43.406Z,20.8
2023-04-16T14:35:35.804Z,20.7
2023-04-16T14:41:12.216Z,20.7
2023-04-16T14:47:03.512Z,20.6
2023-04-16T18:59:49.413Z,20.3
2023-04-16T19:05:26.418Z,20.3
2023-04-16T19:11:16.804Z,20.3
2023-04-16T19:16:56.132Z,20.3
2023-04-16T19:22:31.441Z,20.3
2023-04-16T19:28:24.289Z,20.3
2023-04-16T19:34:17.913Z,20.3
2023-04-16T19:40:09.351Z,20.3
2023-04-16T19:45:59.672Z,20.3
2023-04-16T19:51:52.071Z,20.3
2023-04-16T19:57:43.100Z,20.3
2023-04-16T20:03:34.403Z,20.3
2023-04-16T20:09:26.957Z,20.3
2023-04-16T20:15:17.557Z,20.3
2023-04-16T20:21:14.291Z,25.4
2023-04-16T20:27:06.971Z,29.6
2023-04-16T20:33:00.401Z,31.7
2023-04-16T20:38:51.537Z,27.6
2023-04-16T20:44:46.050Z,27.4
2023-04-16T20:50:22.647Z,31.3
2023-04-16T20:56:13.477Z,27.6
2023-04-16T21:02:07.500Z,25.8
2023-04-16T21:08:00.605Z,26.1
2023-04-16T21:13:35.339Z,30.8
2023-04-16T21:18:56.966Z,28.2
2023-04-16T21:24:32.940Z,26.1
2023-04-16T21:30:09.449Z,25.6
2023-04-16T21:36:01.505Z,25.8
2023-04-16T21:41:22.152Z,30.9
2023-04-16T21:46:58.804Z,28.5
2023-04-16T21:52:51.832Z,26.1
2023-04-16T21:58:28.292Z,25.7
2023-04-16T22:04:21.374Z,25.6
2023-04-16T22:10:31.425Z,30.1
2023-04-16T22:16:38.063Z,28.7
2023-04-16T22:22:29.380Z,26.1
2023-04-16T22:28:21.695Z,25.8
2023-04-16T22:34:12.598Z,25.6
2023-04-16T22:40:03.635Z,29.6
2023-04-16T22:45:55.996Z,29.6
2023-04-16T22:51:47.142Z,26.4
2023-04-16T22:57:22.236Z,25.8
2023-04-16T23:03:15.880Z,25.7
2023-04-16T23:09:07.261Z,25.7
2023-04-16T23:14:42.800Z,30.9
2023-04-16T23:25:25.451Z,26.1
2023-04-16T23:31:00.965Z,25.8
2023-04-16T23:36:53.534Z,25.6
2023-04-16T23:42:45.188Z,25.8
2023-04-16T23:48:05.580Z,31
2023-04-16T23:53:42.668Z,27.8
2023-04-16T23:59:18.958Z,26.1
